Terminal Aerodrome Forecast
Issued by NWS Atlanta, GA

Home | Current Version | Previous Version | Text Only | Print | Product List | Glossary On
Versions: 1 2 3 4 5 6 7 8 9 10 11 12 13 14 15 16 17 18 19 20 21 22 23 24 25 26 27 28 29 30 31 32 33 34 35 36 37 38 39 40 41 42 43 44
433
FTUS42 KFFC 241727
TAFATL
TAF
KATL 241727Z 2418/2524 22014G21KT P6SM VCSH FEW020 BKN035
      TEMPO 2419/2421 VRB15G30KT 4SM TSRA SCT010 BKN025CB
     FM242100 25014G20KT P6SM VCSH BKN050
     FM250200 28008KT P6SM BKN070
     FM250800 28007KT P6SM BKN015
     FM251400 27014G22KT P6SM BKN025
     FM251800 27014G22KT P6SM SCT035=

USA.gov is the U.S. government's official web portal to all federal, state and local government web resources and services.